Time;durP1;ratioP1;P1;durP2;ratioP2;P2;SDS_P1;SDS_P2;PMS_P1;PMS_P2;Temp;Humidity;BMP_temperature;BMP_pressure;BME280_temperature;BME280_humidity;BME280_pressure;Samples;Min_cycle;Max_cycle;Signal;HPM_P1;HPM_P2
2023/01/11 00:01:01;;;;;;;11.05;5.10;;;;;;;13.95;77.36;100520.53;5021457;28;20041;-43
2023/01/11 00:03:28;;;;;;;9.18;4.57;;;;;;;14.01;77.65;100523.13;5019524;28;20430;-45
2023/01/11 00:05:56;;;;;;;8.25;4.80;;;;;;;13.91;77.79;100537.13;5022876;28;20121;-43
2023/01/11 00:08:23;;;;;;;7.32;4.90;;;;;;;14.00;78.20;100537.09;5018827;28;20156;-42
2023/01/11 00:10:49;;;;;;;11.98;4.93;;;;;;;14.12;77.49;100519.53;5021663;28;20032;-41
2023/01/11 00:13:14;;;;;;;9.73;4.70;;;;;;;14.30;76.10;100539.50;5018463;28;20029;-44
2023/01/11 00:15:39;;;;;;;8.52;4.57;;;;;;;13.82;78.24;100536.31;5022687;28;20029;-42
2023/01/11 00:18:05;;;;;;;9.35;4.80;;;;;;;13.86;78.99;100538.91;5018559;28;20079;-46
2023/01/11 00:20:30;;;;;;;12.13;5.00;;;;;;;13.75;78.66;100534.59;5021791;28;20038;-44
2023/01/11 00:22:56;;;;;;;9.77;5.15;;;;;;;13.95;78.17;100529.25;5022926;28;20037;-44
2023/01/11 00:25:21;;;;;;;10.88;4.75;;;;;;;14.00;78.93;100524.00;5019715;28;20430;-48
2023/01/11 00:27:48;;;;;;;8.68;4.70;;;;;;;14.29;77.47;100537.75;5022422;28;20029;-43
2023/01/11 00:30:14;;;;;;;7.07;4.22;;;;;;;14.14;77.84;100528.28;5019304;28;20041;-43
2023/01/11 00:32:40;;;;;;;8.52;4.43;;;;;;;13.86;79.19;100536.28;5022305;28;20504;-42
2023/01/11 00:35:06;;;;;;;7.82;4.13;;;;;;;14.10;77.64;100531.78;5019392;28;20108;-42
2023/01/11 00:39:59;;;;;;;9.00;4.53;;;;;;;14.15;78.65;100531.72;5085763;22;20552;-39
2023/01/11 00:47:56;;;;;;;7.95;4.68;;;;;;;14.22;78.42;100512.47;5063656;28;20415;-40
2023/01/11 00:50:22;;;;;;;7.15;4.57;;;;;;;13.74;80.21;100526.75;5059109;28;20040;-38
2023/01/11 00:52:47;;;;;;;6.97;4.53;;;;;;;13.96;79.78;100520.53;5064008;28;20040;-41
2023/01/11 00:55:13;;;;;;;7.95;4.53;;;;;;;14.16;78.50;100534.34;5060068;28;20021;-41
2023/01/11 00:57:38;;;;;;;7.47;4.32;;;;;;;14.15;78.85;100535.22;5063328;28;20577;-41
2023/01/11 01:00:04;;;;;;;6.88;3.88;;;;;;;13.86;79.34;100536.28;5059906;28;20119;-41
2023/01/11 01:02:31;;;;;;;8.00;4.28;;;;;;;14.41;77.75;100524.59;5062987;28;20033;-41
2023/01/11 01:04:56;;;;;;;7.85;4.47;;;;;;;14.05;78.79;100533.56;5063147;28;20485;-41
2023/01/11 01:07:22;;;;;;;8.00;4.63;;;;;;;14.33;78.27;100526.41;5059545;28;20123;-41
2023/01/11 01:09:47;;;;;;;8.38;4.82;;;;;;;13.92;79.30;100531.00;5061927;28;20051;-41
2023/01/11 01:14:24;;;;;;;7.55;4.90;;;;;;;13.98;79.52;100521.38;5057094;28;20381;-43
2023/01/11 01:14:57;;;;;;;9.20;5.00;;;;;;;14.26;78.25;100532.56;5061641;28;20033;-41
2023/01/11 01:17:23;;;;;;;7.72;4.93;;;;;;;14.11;78.85;100535.28;5057243;28;20094;-41
2023/01/11 01:19:48;;;;;;;9.05;5.35;;;;;;;13.79;80.06;100530.22;5061582;28;20029;-41
2023/01/11 01:22:13;;;;;;;9.15;5.10;;;;;;;13.76;79.84;100541.59;5057216;28;20032;-41
2023/01/11 01:24:39;;;;;;;9.32;5.20;;;;;;;14.29;78.62;100543.00;5064981;28;20028;-43
2023/01/11 01:27:04;;;;;;;8.73;4.53;;;;;;;13.87;79.54;100538.03;5062104;28;20044;-41
2023/01/11 01:29:30;;;;;;;8.55;4.95;;;;;;;14.15;79.21;100547.47;5066605;28;20093;-43
2023/01/11 01:31:55;;;;;;;9.68;4.97;;;;;;;14.00;79.53;100544.97;5065983;28;20033;-41
2023/01/11 01:34:20;;;;;;;8.70;4.60;;;;;;;14.18;79.06;100558.81;5061851;28;23272;-42
2023/01/11 01:36:46;;;;;;;9.32;4.40;;;;;;;13.93;80.55;100549.34;5065199;28;20101;-45
2023/01/11 01:39:11;;;;;;;7.90;4.20;;;;;;;14.27;78.86;100549.16;5061157;28;20438;-41
2023/01/11 01:41:37;;;;;;;6.68;4.20;;;;;;;13.74;80.76;100550.31;5064809;28;20466;-42
2023/01/11 01:44:24;;;;;;;8.25;4.32;;;;;;;14.11;79.08;100567.59;5060964;28;20373;-44
2023/01/11 01:46:49;;;;;;;6.40;3.92;;;;;;;14.05;79.67;100551.91;5064795;28;20044;-41
2023/01/11 01:49:15;;;;;;;7.40;3.70;;;;;;;13.98;79.53;100558.06;5061370;28;20161;-41
2023/01/11 01:51:47;;;;;;;9.23;3.50;;;;;;;14.06;80.26;100568.50;5064317;28;20511;-40
2023/01/11 01:54:19;;;;;;;8.18;3.33;;;;;;;14.09;80.05;100568.47;5061320;28;20500;-41
2023/01/11 01:56:49;;;;;;;6.47;3.30;;;;;;;14.18;80.04;100569.31;5063704;28;20177;-41
2023/01/11 01:59:17;;;;;;;6.82;3.30;;;;;;;13.99;79.65;100569.41;5061141;28;20040;-41
2023/01/11 02:01:47;;;;;;;4.47;2.80;;;;;;;14.00;80.39;100586.88;5064147;28;20029;-41
2023/01/11 02:04:42;;;;;;;5.45;2.90;;;;;;;13.92;80.28;100581.69;5061333;28;20039;-42
2023/01/11 02:07:12;;;;;;;6.47;2.78;;;;;;;14.46;79.03;100583.13;5056827;28;20048;-41
2023/01/11 02:09:56;;;;;;;7.05;2.53;;;;;;;14.23;79.91;100575.41;5062444;28;20045;-41
2023/01/11 02:12:25;;;;;;;6.63;2.28;;;;;;;14.31;79.52;100582.34;5061201;28;20278;-40
2023/01/11 02:14:53;;;;;;;5.07;2.20;;;;;;;14.29;79.66;100569.22;5065816;28;20029;-40
2023/01/11 02:17:18;;;;;;;6.82;2.00;;;;;;;14.09;80.47;100578.97;5061510;28;20087;-44
2023/01/11 02:20:03;;;;;;;6.15;1.90;;;;;;;14.28;80.10;100577.09;5064203;28;20505;-41
2023/01/11 02:22:53;;;;;;;4.70;1.50;;;;;;;14.54;78.65;100580.47;5060198;28;20085;-43
2023/01/11 02:25:45;;;;;;;5.82;1.65;;;;;;;14.22;79.86;100575.41;5060440;28;20094;-43
2023/01/11 02:28:15;;;;;;;5.93;1.50;;;;;;;14.53;78.03;100565.59;5060358;28;20054;-42
2023/01/11 02:31:17;;;;;;;8.20;1.65;;;;;;;14.32;79.24;100578.84;5063410;28;20029;-41
2023/01/11 02:33:50;;;;;;;5.90;1.70;;;;;;;14.16;80.15;100584.16;5060417;28;20047;-40
2023/01/11 02:36:44;;;;;;;5.35;1.60;;;;;;;14.34;79.40;100575.31;5060182;28;20029;-41
2023/01/11 02:39:12;;;;;;;6.28;1.50;;;;;;;14.11;79.32;100593.81;5060219;28;20066;-44
2023/01/11 02:45:01;;;;;;;9.23;1.85;;;;;;;14.21;79.31;100560.53;5062568;28;20530;-42
2023/01/11 02:47:42;;;;;;;8.15;1.88;;;;;;;14.48;78.07;100572.63;5060208;28;20040;-43
2023/01/11 02:50:19;;;;;;;7.53;1.90;;;;;;;14.49;78.92;100585.75;5060417;28;20036;-42
2023/01/11 02:52:59;;;;;;;6.80;1.98;;;;;;;14.23;79.34;100593.75;5063672;28;20028;-42
2023/01/11 02:55:30;;;;;;;6.07;1.50;;;;;;;14.45;78.74;100602.41;5062262;28;20093;-41
2023/01/11 02:57:59;;;;;;;8.18;2.00;;;;;;;14.07;80.10;100601.72;5065312;28;20021;-42
2023/01/11 03:00:25;;;;;;;8.85;2.92;;;;;;;14.18;80.15;100606.00;5060822;28;20028;-43
2023/01/11 03:03:15;;;;;;;9.77;3.03;;;;;;;14.34;79.00;100603.28;5064910;28;20088;-42
2023/01/11 03:05:52;;;;;;;11.40;3.80;;;;;;;14.47;79.55;100602.38;5059524;28;20033;-43
2023/01/11 03:08:32;;;;;;;15.35;4.22;;;;;;;14.00;80.45;100593.00;5059561;28;20039;-44
2023/01/11 03:11:06;;;;;;;16.38;4.20;;;;;;;14.26;78.99;100618.22;5062848;28;20091;-42
2023/01/11 03:13:35;;;;;;;16.13;4.33;;;;;;;14.26;79.78;100626.09;5060599;28;20043;-45
2023/01/11 03:16:12;;;;;;;20.88;4.20;;;;;;;14.29;78.80;100631.28;5063697;28;20063;-45
2023/01/11 03:18:41;;;;;;;16.45;4.13;;;;;;;14.28;78.83;100619.94;5059376;28;20035;-36
2023/01/11 03:21:25;;;;;;;17.00;4.30;;;;;;;13.87;80.23;100617.53;5062508;28;20395;-40
2023/01/11 03:24:17;;;;;;;16.55;4.45;;;;;;;14.27;79.05;100615.59;5059325;28;20396;-41
2023/01/11 03:27:24;;;;;;;14.68;4.72;;;;;;;14.42;78.09;100612.03;5056643;28;20039;-42
2023/01/11 03:30:10;;;;;;;19.80;5.22;;;;;;;14.22;78.79;100612.97;5059587;28;20037;-43
2023/01/11 03:32:59;;;;;;;18.58;4.88;;;;;;;14.13;78.73;100605.19;5059029;28;20025;-42
2023/01/11 03:35:39;;;;;;;16.73;4.30;;;;;;;14.42;77.87;100612.03;5059828;28;20090;-41
2023/01/11 03:38:22;;;;;;;14.07;4.32;;;;;;;14.35;77.35;100613.78;5058286;28;20484;-42
2023/01/11 03:41:00;;;;;;;19.17;4.00;;;;;;;14.28;78.72;100624.31;5062506;28;20374;-42
2023/01/11 03:43:27;;;;;;;16.00;3.65;;;;;;;14.41;77.46;100639.13;5060214;28;20064;-41
2023/01/11 03:46:00;;;;;;;24.05;3.80;;;;;;;13.95;78.92;100644.59;5063810;28;20032;-43
2023/01/11 03:48:31;;;;;;;21.65;4.03;;;;;;;14.05;78.56;100637.53;5061189;28;20025;-43
2023/01/11 03:50:58;;;;;;;19.25;3.50;;;;;;;14.02;78.82;100643.69;5062922;28;20145;-41
2023/01/11 03:53:28;;;;;;;21.60;3.25;;;;;;;14.18;78.14;100653.22;5059786;28;20085;-41
2023/01/11 03:55:56;;;;;;;20.75;3.97;;;;;;;13.88;78.75;100648.09;5063650;28;20091;-41
2023/01/11 03:58:23;;;;;;;18.85;3.35;;;;;;;14.09;77.96;100657.59;5059671;28;21028;-42
2023/01/11 04:00:49;;;;;;;17.42;2.90;;;;;;;14.33;77.59;100654.91;5062529;28;20059;-37
2023/01/11 04:03:15;;;;;;;18.88;2.53;;;;;;;14.27;76.90;100675.91;5058987;28;20063;-42
2023/01/11 04:05:43;;;;;;;17.48;2.95;;;;;;;14.09;77.45;100676.81;5062641;28;20470;-38
2023/01/11 04:08:10;;;;;;;17.05;2.97;;;;;;;14.00;77.24;100696.97;5058623;28;20059;-40
2023/01/11 04:10:36;;;;;;;15.55;2.70;;;;;;;13.89;77.82;100691.78;5061688;28;20055;-44
2023/01/11 04:13:01;;;;;;;17.08;2.75;;;;;;;14.26;76.19;100692.50;5059203;28;20028;-55
2023/01/11 04:15:29;;;;;;;18.83;3.00;;;;;;;14.08;76.82;100689.97;5061598;28;20089;-42
2023/01/11 04:17:54;;;;;;;17.63;2.50;;;;;;;13.85;77.58;100704.88;5062282;28;20042;-43
2023/01/11 04:20:20;;;;;;;21.00;3.00;;;;;;;13.92;76.93;100693.50;5058020;28;20462;-41
2023/01/11 04:22:45;;;;;;;16.77;2.70;;;;;;;14.12;75.85;100689.94;5062178;28;20591;-44
2023/01/11 04:25:10;;;;;;;17.17;2.63;;;;;;;14.22;75.62;100693.38;5058843;28;20115;-41
2023/01/11 04:27:36;;;;;;;21.05;2.65;;;;;;;14.55;74.32;100685.38;5062774;28;20043;-42
2023/01/11 04:30:01;;;;;;;13.25;2.55;;;;;;;14.25;75.38;100700.38;5062203;28;20024;-40
2023/01/11 04:32:26;;;;;;;14.57;2.50;;;;;;;14.17;75.27;100711.75;5057752;28;20124;-42
2023/01/11 04:34:52;;;;;;;19.98;2.90;;;;;;;13.92;75.62;100704.84;5062280;28;20078;-42
2023/01/11 04:37:17;;;;;;;14.52;3.03;;;;;;;13.67;76.07;100711.03;5056517;28;20794;-41
2023/01/11 04:39:42;;;;;;;15.77;2.53;;;;;;;14.12;74.71;100715.28;5061640;28;20570;-43
2023/01/11 04:42:19;;;;;;;15.88;2.33;;;;;;;13.80;74.80;100718.00;5057106;28;20124;-44
2023/01/11 04:44:47;;;;;;;14.45;2.25;;;;;;;13.99;73.83;100721.44;5064489;28;20037;-39
2023/01/11 04:47:14;;;;;;;16.55;2.20;;;;;;;13.93;74.12;100724.94;5061369;28;20377;-39
2023/01/11 04:49:40;;;;;;;14.25;2.70;;;;;;;14.23;72.92;100723.97;5062446;28;20029;-43
2023/01/11 04:52:08;;;;;;;15.45;2.05;;;;;;;14.05;72.97;100726.66;5057308;28;20559;-41
2023/01/11 04:54:33;;;;;;;12.73;2.30;;;;;;;13.67;74.03;100729.38;5062099;28;20035;-40
2023/01/11 04:56:58;;;;;;;14.68;2.30;;;;;;;13.74;72.94;100723.25;5064576;28;20033;-41
2023/01/11 04:59:24;;;;;;;13.98;2.38;;;;;;;13.64;73.68;100737.25;5066738;28;20032;-42
2023/01/11 05:01:49;;;;;;;14.07;2.33;;;;;;;14.12;72.15;100742.38;5068189;28;20041;-44
2023/01/11 05:04:14;;;;;;;11.90;2.47;;;;;;;13.77;72.26;100734.59;5076028;28;20056;-42
2023/01/11 05:06:40;;;;;;;16.90;2.40;;;;;;;13.75;72.54;100738.09;5077386;28;20037;-42
2023/01/11 05:09:10;;;;;;;11.98;2.20;;;;;;;13.86;71.60;100738.06;5064038;28;20473;-44
2023/01/11 05:11:36;;;;;;;15.45;2.45;;;;;;;13.52;71.99;100742.50;5065623;28;20033;-42
2023/01/11 05:14:01;;;;;;;15.00;2.60;;;;;;;13.72;71.39;100741.56;5066199;28;20542;-45
2023/01/11 05:16:27;;;;;;;13.20;2.17;;;;;;;13.38;71.64;100759.06;5062475;28;20032;-47
2023/01/11 05:18:56;;;;;;;18.90;2.17;;;;;;;13.39;71.94;100759.94;5068672;28;20035;-43
2023/01/11 05:21:30;;;;;;;14.50;2.40;;;;;;;13.54;71.52;100761.72;5064141;28;20036;-44
2023/01/11 05:23:57;;;;;;;14.25;2.08;;;;;;;13.64;71.14;100759.06;5067521;28;20532;-41
2023/01/11 05:26:26;;;;;;;14.02;1.83;;;;;;;13.78;70.48;100767.75;5061036;28;20072;-45
2023/01/11 05:28:58;;;;;;;14.48;1.75;;;;;;;13.69;71.05;100769.53;5065201;28;20039;-42
2023/01/11 05:31:24;;;;;;;13.55;1.98;;;;;;;13.39;71.57;100770.44;5060637;28;20112;-41
2023/01/11 05:33:50;;;;;;;9.77;2.08;;;;;;;13.40;71.23;100774.78;5065014;28;20086;-40
2023/01/11 05:36:20;;;;;;;16.33;2.10;;;;;;;13.22;71.42;100774.78;5061225;28;20457;-41
2023/01/11 05:38:46;;;;;;;16.80;1.77;;;;;;;13.39;71.09;100773.03;5065045;28;20047;-41
2023/01/11 05:41:12;;;;;;;16.23;3.17;;;;;;;13.55;70.26;100779.16;5060245;28;20124;-42
2023/01/11 05:46:22;;;;;;;15.18;2.08;;;;;;;13.44;69.81;100776.53;5061120;28;20047;-43
2023/01/11 05:48:48;;;;;;;12.25;1.88;;;;;;;13.25;70.56;100782.63;5064761;28;20024;-41
2023/01/11 05:51:14;;;;;;;15.30;2.17;;;;;;;13.57;69.25;100788.75;5060516;28;20374;-40
2023/01/11 05:53:39;;;;;;;15.88;2.25;;;;;;;13.38;69.97;100787.88;5064916;28;20047;-43
2023/01/11 05:56:04;;;;;;;12.82;2.00;;;;;;;13.51;69.86;100785.25;5060822;28;20063;-41
2023/01/11 05:58:30;;;;;;;9.25;2.20;;;;;;;13.60;69.45;100793.97;5064632;28;20089;-42
2023/01/11 06:00:55;;;;;;;15.40;1.90;;;;;;;13.40;70.07;100795.75;5063833;28;20042;-41
2023/01/11 06:03:22;;;;;;;14.88;2.22;;;;;;;13.37;70.35;100795.72;5061212;28;24636;-41
2023/01/11 06:05:48;;;;;;;12.30;2.00;;;;;;;13.22;70.79;100808.81;5064776;28;20537;-42
2023/01/11 06:08:14;;;;;;;13.65;2.22;;;;;;;13.10;70.92;100820.09;5061136;28;20031;-41
2023/01/11 06:10:40;;;;;;;14.75;2.00;;;;;;;12.99;71.23;100819.22;5065977;28;20033;-43
2023/01/11 06:15:49;;;;;;;13.98;1.77;;;;;;;13.27;70.29;100834.13;5065061;28;20427;-42
2023/01/11 06:18:14;;;;;;;18.95;2.40;;;;;;;13.23;70.31;100827.16;5060568;28;20036;-42
2023/01/11 06:20:40;;;;;;;14.10;2.03;;;;;;;13.18;70.07;100833.22;5063570;28;20033;-43
2023/01/11 06:23:06;;;;;;;18.50;2.30;;;;;;;13.09;70.68;100844.53;5060805;28;20078;-41
2023/01/11 06:25:36;;;;;;;16.92;2.22;;;;;;;13.12;70.18;100836.69;5064040;28;20118;-43
2023/01/11 06:28:02;;;;;;;11.63;1.77;;;;;;;12.84;71.02;100851.44;5064458;28;20526;-45
2023/01/11 06:30:28;;;;;;;14.13;2.17;;;;;;;12.81;71.51;100848.78;5060482;28;20312;-44
2023/01/11 06:32:53;;;;;;;12.00;2.28;;;;;;;12.66;71.69;100846.13;5064588;28;20417;-41
2023/01/11 06:35:18;;;;;;;15.52;2.42;;;;;;;12.78;70.61;100854.00;5060327;28;20119;-41
2023/01/11 06:37:44;;;;;;;15.52;2.28;;;;;;;13.20;69.30;100858.53;5063421;28;20077;-42
2023/01/11 06:40:10;;;;;;;18.27;2.40;;;;;;;12.79;70.25;100853.16;5066082;22;20052;-41
2023/01/11 06:42:35;;;;;;;12.80;2.17;;;;;;;12.95;70.17;100849.72;5064116;28;20086;-40
2023/01/11 06:45:01;;;;;;;15.60;2.30;;;;;;;12.53;71.34;100862.63;5062750;28;20070;-39
2023/01/11 06:47:26;;;;;;;18.08;2.63;;;;;;;12.40;72.07;100859.06;5061004;28;20485;-42
2023/01/11 06:49:51;;;;;;;16.67;2.38;;;;;;;12.72;71.12;100864.44;5063471;28;20067;-39
2023/01/11 06:52:17;;;;;;;10.85;1.90;;;;;;;12.51;71.45;100866.94;5059693;28;20521;-40
2023/01/11 06:54:42;;;;;;;15.15;2.40;;;;;;;12.54;71.05;100872.22;5064469;28;20059;-40
2023/01/11 06:57:07;;;;;;;15.25;2.00;;;;;;;12.20;72.44;100876.34;5060822;28;20122;-43
2023/01/11 06:59:33;;;;;;;20.10;3.63;;;;;;;12.69;70.80;100874.00;5063714;28;20045;-38
2023/01/11 07:01:58;;;;;;;14.13;2.40;;;;;;;12.79;70.94;100879.31;5063434;28;20113;-41
2023/01/11 07:04:23;;;;;;;16.52;2.40;;;;;;;12.59;71.01;100888.78;5060199;28;20024;-40
2023/01/11 07:06:53;;;;;;;16.05;2.60;;;;;;;12.68;70.61;100875.78;5064148;28;20280;-39
2023/01/11 07:09:18;;;;;;;18.75;3.22;;;;;;;12.54;70.50;100885.28;5059878;28;20059;-39
2023/01/11 07:11:44;;;;;;;17.02;2.83;;;;;;;12.47;71.12;100894.84;5062987;28;20055;-43
2023/01/11 07:14:10;;;;;;;14.10;2.40;;;;;;;12.53;70.93;100896.59;5060337;28;20039;-39
2023/01/11 07:16:36;;;;;;;17.98;2.40;;;;;;;12.40;71.30;100903.50;5064261;28;20024;-41
2023/01/11 07:19:01;;;;;;;15.90;2.50;;;;;;;12.46;70.69;100906.16;5062391;28;20296;-40
2023/01/11 07:21:27;;;;;;;15.23;2.60;;;;;;;12.37;70.88;100919.19;5059234;28;20035;-39
2023/01/11 07:23:52;;;;;;;18.13;2.30;;;;;;;12.55;70.22;100921.91;5064345;28;20032;-39
2023/01/11 07:26:17;;;;;;;15.43;2.65;;;;;;;12.28;70.72;100916.50;5059416;28;20033;-40
2023/01/11 07:28:43;;;;;;;17.48;2.45;;;;;;;12.36;70.43;100924.41;5063617;28;20056;-42
2023/01/11 07:31:08;;;;;;;21.80;2.55;;;;;;;12.38;70.57;100928.75;5057430;28;20116;-42
2023/01/11 07:33:33;;;;;;;21.08;2.95;;;;;;;12.39;70.16;100933.13;5063316;28;20029;-42
2023/01/11 07:35:59;;;;;;;17.02;2.38;;;;;;;12.39;70.31;100938.34;5063069;28;20369;-41
2023/01/11 07:38:28;;;;;;;15.20;2.55;;;;;;;12.17;70.70;100944.28;5059340;28;20129;-41
2023/01/11 07:40:53;;;;;;;17.00;2.40;;;;;;;12.47;69.53;100939.28;5062549;28;20512;-41
2023/01/11 07:43:21;;;;;;;17.10;2.63;;;;;;;12.45;70.32;100945.34;5060087;28;20036;-36
2023/01/11 07:45:48;;;;;;;17.55;2.28;;;;;;;12.47;70.45;100948.88;5064460;28;20037;-43
2023/01/11 07:48:19;;;;;;;16.75;2.38;;;;;;;12.26;70.59;100943.50;5060947;28;20036;-40
2023/01/11 07:50:45;;;;;;;14.75;2.40;;;;;;;12.41;70.36;100946.22;5063526;28;20032;-38
2023/01/11 07:53:11;;;;;;;18.05;2.70;;;;;;;12.27;70.10;100956.56;5059146;28;20584;-43
2023/01/11 07:55:38;;;;;;;15.93;2.38;;;;;;;12.30;70.86;100959.22;5059466;28;20028;-47
2023/01/11 07:58:04;;;;;;;23.60;3.15;;;;;;;12.35;70.46;100967.97;5060164;28;20038;-42
2023/01/11 08:00:30;;;;;;;16.40;2.45;;;;;;;12.00;70.91;100967.69;5064128;28;20036;-42
2023/01/11 08:02:55;;;;;;;20.08;2.83;;;;;;;12.49;69.04;100961.09;5065089;28;20045;-39
2023/01/11 08:05:21;;;;;;;19.00;3.47;;;;;;;12.33;69.71;100976.66;5061402;28;22557;-44
2023/01/11 08:07:46;;;;;;;20.13;2.50;;;;;;;12.22;69.91;100981.78;5066524;28;20101;-45
2023/01/11 08:10:12;;;;;;;14.65;2.03;;;;;;;12.34;69.63;100981.88;5063044;28;20047;-37
2023/01/11 08:15:26;;;;;;;16.25;2.30;;;;;;;12.24;69.15;100992.28;5060763;28;20054;-40
2023/01/11 08:17:51;;;;;;;15.55;2.55;;;;;;;12.08;69.33;100999.97;5064047;28;20024;-40
2023/01/11 08:20:17;;;;;;;15.00;2.20;;;;;;;12.19;68.42;100993.13;5060557;28;20028;-37
2023/01/11 08:22:42;;;;;;;20.15;2.97;;;;;;;12.23;68.88;101001.84;5064681;28;20048;-40
2023/01/11 08:25:08;;;;;;;10.68;2.15;;;;;;;12.37;68.41;101012.44;5059567;28;20040;-39
2023/01/11 08:27:33;;;;;;;16.98;2.30;;;;;;;12.29;68.52;101009.75;5062726;28;20032;-41
2023/01/11 08:29:58;;;;;;;17.20;2.40;;;;;;;12.50;67.86;101011.66;5062551;28;20488;-39
2023/01/11 08:32:27;;;;;;;19.98;2.50;;;;;;;12.32;68.36;101017.59;5057893;28;20082;-40
2023/01/11 08:34:52;;;;;;;17.95;2.40;;;;;;;11.97;69.71;101024.22;5056899;28;20029;-44
2023/01/11 08:37:17;;;;;;;20.63;2.50;;;;;;;11.89;69.92;101024.19;5037109;28;20540;-44
2023/01/11 08:39:43;;;;;;;22.10;2.80;;;;;;;12.40;68.21;101012.44;5042343;28;20059;-39
2023/01/11 08:42:08;;;;;;;20.42;2.55;;;;;;;12.41;68.45;101016.81;5038260;28;20055;-43
2023/01/11 08:44:33;;;;;;;17.65;2.40;;;;;;;12.09;68.83;101017.41;5040796;28;20044;-43
2023/01/11 08:46:59;;;;;;;22.38;2.35;;;;;;;12.24;68.63;101014.06;5042193;28;20033;-42
2023/01/11 08:49:24;;;;;;;17.08;2.35;;;;;;;11.93;70.28;101019.84;5036270;28;20048;-41
2023/01/11 08:51:51;;;;;;;15.27;2.38;;;;;;;12.42;68.07;101010.72;5041439;28;20474;-43
2023/01/11 08:54:16;;;;;;;27.20;3.22;;;;;;;12.02;69.69;101012.97;5038259;28;20037;-40
2023/01/11 08:56:42;;;;;;;19.35;2.58;;;;;;;12.30;69.03;101014.13;5043436;28;20032;-40
2023/01/11 08:59:09;;;;;;;20.63;3.03;;;;;;;12.31;68.44;101035.91;5038351;28;20033;-39
2023/01/11 09:01:34;;;;;;;14.95;2.30;;;;;;;12.31;68.75;101028.06;5041658;28;20511;-40
2023/01/11 09:03:59;;;;;;;15.55;2.63;;;;;;;12.38;68.72;101028.09;5041792;28;20033;-39
2023/01/11 09:06:25;;;;;;;17.65;2.83;;;;;;;12.39;68.39;101042.06;5045134;28;20036;-38
2023/01/11 09:08:50;;;;;;;23.30;2.88;;;;;;;12.31;68.13;101038.53;5065754;28;20082;-45
2023/01/11 09:13:59;;;;;;;13.85;2.22;;;;;;;12.74;66.54;101031.88;5062876;28;20051;-40
2023/01/11 09:16:25;;;;;;;18.88;2.40;;;;;;;12.39;67.29;101032.47;5058832;28;20400;-42
2023/01/11 09:18:50;;;;;;;12.20;2.30;;;;;;;12.82;65.69;101036.28;5062496;28;20032;-38
2023/01/11 09:21:15;;;;;;;20.45;2.88;;;;;;;12.63;65.86;101038.75;5058682;28;20531;-41
2023/01/11 09:23:43;;;;;;;18.38;2.60;;;;;;;12.16;66.28;101042.72;5063267;28;20400;-43
2023/01/11 09:26:10;;;;;;;20.45;3.08;;;;;;;12.46;65.49;101039.50;5059413;28;20033;-40
2023/01/11 09:28:35;;;;;;;17.70;2.60;;;;;;;12.54;65.34;101030.00;5061143;28;20040;-43
2023/01/11 09:31:00;;;;;;;24.48;2.72;;;;;;;12.94;64.35;101036.38;5063179;28;20119;-39
2023/01/11 09:33:26;;;;;;;13.23;2.13;;;;;;;12.58;64.74;101034.38;5058192;28;20039;-38
2023/01/11 09:35:51;;;;;;;18.90;2.70;;;;;;;12.65;64.32;101032.69;5061617;28;20029;-39
2023/01/11 09:38:17;;;;;;;14.55;2.25;;;;;;;12.77;63.58;101040.63;5058428;28;20036;-40
2023/01/11 09:40:51;;;;;;;18.00;2.35;;;;;;;12.63;63.82;101034.41;5061418;28;20031;-38
2023/01/11 09:43:20;;;;;;;20.48;2.47;;;;;;;12.77;63.81;101030.16;5058272;28;20032;-40
2023/01/11 09:45:46;;;;;;;13.70;2.30;;;;;;;12.76;63.10;101036.25;5064411;28;20544;-39
2023/01/11 09:48:25;;;;;;;17.02;2.30;;;;;;;12.91;63.21;101039.00;5062054;28;20456;-42
2023/01/11 09:50:51;;;;;;;15.00;2.50;;;;;;;12.68;63.85;101048.41;5065307;28;20040;-46
2023/01/11 09:53:27;;;;;;;16.42;2.63;;;;;;;12.75;63.97;101051.94;5061838;28;20115;-37
2023/01/11 09:55:56;;;;;;;17.02;2.42;;;;;;;12.92;63.71;101064.28;5066904;28;20481;-38
2023/01/11 09:58:45;;;;;;;16.88;2.83;;;;;;;13.10;63.73;101058.28;5062861;28;21179;-38
2023/01/11 10:01:20;;;;;;;23.48;3.10;;;;;;;12.89;64.36;101058.16;5061499;28;20607;-42
2023/01/11 10:04:19;;;;;;;24.52;2.45;;;;;;;12.70;65.50;101069.34;5066455;28;20447;-40
2023/01/11 10:07:13;;;;;;;18.58;2.50;;;;;;;12.97;64.66;101082.63;5061558;28;20040;-40
2023/01/11 10:10:06;;;;;;;14.95;2.20;;;;;;;13.23;64.01;101090.69;5061453;28;20116;-36
2023/01/11 10:12:31;;;;;;;18.77;2.60;;;;;;;13.12;63.94;101084.47;5059037;28;20616;-38
2023/01/11 10:15:04;;;;;;;13.88;2.38;;;;;;;13.00;64.60;101107.06;5064860;28;20123;-38
2023/01/11 10:17:29;;;;;;;16.30;2.38;;;;;;;13.28;63.86;101102.06;5061003;28;20037;-42
2023/01/11 10:20:04;;;;;;;17.67;2.42;;;;;;;12.94;64.51;101114.88;5064985;28;20044;-39
2023/01/11 10:22:39;;;;;;;15.00;2.22;;;;;;;13.12;64.41;101100.16;5060678;28;20048;-38
2023/01/11 10:25:15;;;;;;;17.73;2.53;;;;;;;13.07;64.55;101107.13;5061333;28;20401;-41
2023/01/11 10:27:54;;;;;;;15.45;2.13;;;;;;;12.93;64.82;101113.13;5065521;28;20024;-40
2023/01/11 10:30:41;;;;;;;17.88;2.25;;;;;;;13.08;64.30;101107.13;5060665;28;20133;-39
2023/01/11 10:36:49;;;;;;;18.23;2.35;;;;;;;13.04;64.33;101110.59;5061480;28;20502;-36
2023/01/11 10:42:04;;;;;;;16.58;2.33;;;;;;;12.90;64.03;101112.22;5064631;28;20044;-38
2023/01/11 10:44:39;;;;;;;18.70;2.70;;;;;;;12.69;65.19;101097.22;5061694;28;20036;-39
2023/01/11 10:47:15;;;;;;;22.50;2.65;;;;;;;12.98;65.04;101105.31;5062983;28;20059;-38
2023/01/11 10:50:04;;;;;;;15.98;2.30;;;;;;;13.17;63.63;101099.38;5069034;28;20111;-39
2023/01/11 10:52:50;;;;;;;16.88;2.53;;;;;;;13.67;62.85;101094.41;5062414;28;20464;-37
2023/01/11 10:55:19;;;;;;;16.33;2.17;;;;;;;13.42;62.94;101096.91;5063454;28;20041;-41
2023/01/11 10:57:49;;;;;;;20.83;2.70;;;;;;;12.91;64.01;101104.41;5068271;28;20037;-40
2023/01/11 11:00:23;;;;;;;21.60;2.15;;;;;;;13.33;63.69;101098.59;5062802;28;20123;-47
2023/01/11 11:03:08;;;;;;;21.13;2.70;;;;;;;13.09;63.95;101085.34;5066413;28;20032;-36
2023/01/11 11:05:51;;;;;;;14.30;2.22;;;;;;;12.93;63.79;101102.66;5061814;28;20120;-38
2023/01/11 11:08:29;;;;;;;21.10;3.15;;;;;;;12.74;64.18;101103.41;5064961;28;20123;-36
2023/01/11 11:11:05;;;;;;;19.98;2.17;;;;;;;13.05;62.82;101101.00;5068306;28;20028;-45
2023/01/11 11:13:51;;;;;;;20.83;2.35;;;;;;;13.26;62.47;101099.44;5070164;28;20040;-41
2023/01/11 11:16:22;;;;;;;14.00;2.55;;;;;;;12.97;63.08;101099.22;5068093;28;20036;-39
2023/01/11 11:18:50;;;;;;;16.27;2.95;;;;;;;13.12;62.65;101102.78;5070270;28;20036;-39
2023/01/11 11:21:37;;;;;;;22.08;2.55;;;;;;;13.29;61.68;101101.22;5067070;28;20059;-41
2023/01/11 11:24:13;;;;;;;17.67;2.20;;;;;;;13.33;60.68;101093.38;5070723;28;20075;-40
2023/01/11 11:26:45;;;;;;;15.93;2.10;;;;;;;13.20;61.54;101096.78;5066599;28;20048;-39
2023/01/11 11:29:19;;;;;;;18.05;2.70;;;;;;;12.98;62.11;101098.34;5070335;28;20041;-40
2023/01/11 11:31:45;;;;;;;;;;;;;;;13.21;61.48;101098.53;5068245;28;20040;-38
2023/01/11 11:34:16;;;;;;;20.17;2.78;;;;;;;13.21;60.93;101097.66;5070416;28;19922;-39
2023/01/11 11:36:46;;;;;;;17.10;2.28;;;;;;;13.33;60.24;101111.69;5068083;28;20032;-39
2023/01/11 11:39:27;;;;;;;12.85;2.05;;;;;;;13.13;60.24;101094.09;5070597;28;20044;-40
2023/01/11 11:41:55;;;;;;;18.08;2.15;;;;;;;13.41;59.59;101101.28;5067338;28;20032;-38
2023/01/11 11:44:27;;;;;;;14.90;2.50;;;;;;;13.15;59.68;101108.09;5070598;28;20054;-40
2023/01/11 11:47:16;;;;;;;17.88;2.40;;;;;;;13.04;59.28;101104.50;5067832;28;20052;-40
2023/01/11 11:49:42;;;;;;;18.77;2.42;;;;;;;12.96;59.78;101107.03;5060247;28;20032;-36
2023/01/11 11:52:16;;;;;;;15.65;2.40;;;;;;;12.65;60.67;101102.44;5066343;28;20089;-38
2023/01/11 11:54:55;;;;;;;20.40;2.38;;;;;;;12.81;60.62;101096.44;5070459;28;20069;-40
2023/01/11 11:57:25;;;;;;;17.90;2.30;;;;;;;13.09;59.50;101116.75;5066468;28;20288;-39
2023/01/11 12:00:04;;;;;;;13.57;2.38;;;;;;;12.89;60.11;101111.34;5071186;28;20029;-39